sensor_id;sensor_type;location;lat;lon;timestamp;P1;durP1;ratioP1;P2;durP2;ratioP2
66183;SDS011;52989;48.796;9.806;2022-08-02T00:01:50;2.42;;;1.88;;
66183;SDS011;52989;48.796;9.806;2022-08-02T00:04:15;2.83;;;1.73;;
66183;SDS011;52989;48.796;9.806;2022-08-02T00:06:41;2.63;;;1.80;;
66183;SDS011;52989;48.796;9.806;2022-08-02T00:09:07;3.63;;;2.08;;
66183;SDS011;52989;48.796;9.806;2022-08-02T00:11:33;4.10;;;2.78;;
66183;SDS011;52989;48.796;9.806;2022-08-02T00:13:59;3.65;;;2.50;;
66183;SDS011;52989;48.796;9.806;2022-08-02T00:16:24;3.20;;;2.30;;
66183;SDS011;52989;48.796;9.806;2022-08-02T00:18:50;3.03;;;2.40;;
66183;SDS011;52989;48.796;9.806;2022-08-02T00:21:15;5.88;;;3.45;;
66183;SDS011;52989;48.796;9.806;2022-08-02T00:23:42;5.57;;;3.17;;
66183;SDS011;52989;48.796;9.806;2022-08-02T00:26:07;4.07;;;2.80;;
66183;SDS011;52989;48.796;9.806;2022-08-02T00:28:34;5.05;;;2.92;;
66183;SDS011;52989;48.796;9.806;2022-08-02T00:31:00;3.75;;;2.47;;
66183;SDS011;52989;48.796;9.806;2022-08-02T00:33:26;2.63;;;1.95;;
66183;SDS011;52989;48.796;9.806;2022-08-02T00:35:51;2.65;;;1.88;;
66183;SDS011;52989;48.796;9.806;2022-08-02T00:38:17;1.98;;;1.70;;
66183;SDS011;52989;48.796;9.806;2022-08-02T00:40:47;3.05;;;1.92;;
66183;SDS011;52989;48.796;9.806;2022-08-02T00:43:16;2.58;;;1.85;;
66183;SDS011;52989;48.796;9.806;2022-08-02T00:45:42;2.60;;;1.80;;
66183;SDS011;52989;48.796;9.806;2022-08-02T00:48:09;3.35;;;1.90;;
66183;SDS011;52989;48.796;9.806;2022-08-02T00:50:36;2.90;;;1.60;;
66183;SDS011;52989;48.796;9.806;2022-08-02T00:53:02;2.55;;;1.45;;
66183;SDS011;52989;48.796;9.806;2022-08-02T00:55:29;1.50;;;1.40;;
66183;SDS011;52989;48.796;9.806;2022-08-02T00:57:55;2.33;;;1.48;;
66183;SDS011;52989;48.796;9.806;2022-08-02T01:00:20;1.75;;;1.33;;
66183;SDS011;52989;48.796;9.806;2022-08-02T01:02:46;2.33;;;1.50;;
66183;SDS011;52989;48.796;9.806;2022-08-02T01:05:12;3.88;;;1.40;;
66183;SDS011;52989;48.796;9.806;2022-08-02T01:07:38;2.55;;;1.67;;
66183;SDS011;52989;48.796;9.806;2022-08-02T01:10:04;2.53;;;1.73;;
66183;SDS011;52989;48.796;9.806;2022-08-02T01:12:30;5.13;;;1.80;;
66183;SDS011;52989;48.796;9.806;2022-08-02T01:14:57;2.75;;;1.85;;
66183;SDS011;52989;48.796;9.806;2022-08-02T01:26:25;3.42;;;2.40;;
66183;SDS011;52989;48.796;9.806;2022-08-02T01:29:06;2.20;;;2.00;;
66183;SDS011;52989;48.796;9.806;2022-08-02T01:31:56;2.72;;;1.80;;
66183;SDS011;52989;48.796;9.806;2022-08-02T01:37:16;2.72;;;1.67;;
66183;SDS011;52989;48.796;9.806;2022-08-02T01:39:46;1.77;;;1.60;;
66183;SDS011;52989;48.796;9.806;2022-08-02T01:42:15;4.00;;;1.90;;
66183;SDS011;52989;48.796;9.806;2022-08-02T01:44:43;2.33;;;1.95;;
66183;SDS011;52989;48.796;9.806;2022-08-02T01:47:18;2.13;;;1.88;;
66183;SDS011;52989;48.796;9.806;2022-08-02T01:49:49;3.20;;;2.10;;
66183;SDS011;52989;48.796;9.806;2022-08-02T01:52:17;2.63;;;2.10;;
66183;SDS011;52989;48.796;9.806;2022-08-02T01:54:46;3.58;;;2.45;;
66183;SDS011;52989;48.796;9.806;2022-08-02T01:57:38;3.03;;;2.33;;
66183;SDS011;52989;48.796;9.806;2022-08-02T02:00:06;2.80;;;2.00;;
66183;SDS011;52989;48.796;9.806;2022-08-02T02:02:34;2.75;;;1.95;;
66183;SDS011;52989;48.796;9.806;2022-08-02T02:05:01;2.58;;;2.00;;
66183;SDS011;52989;48.796;9.806;2022-08-02T02:07:28;2.38;;;2.10;;
66183;SDS011;52989;48.796;9.806;2022-08-02T02:09:57;3.30;;;2.20;;
66183;SDS011;52989;48.796;9.806;2022-08-02T02:12:26;2.67;;;2.00;;
66183;SDS011;52989;48.796;9.806;2022-08-02T02:14:53;4.55;;;2.10;;
66183;SDS011;52989;48.796;9.806;2022-08-02T02:17:21;3.88;;;2.10;;
66183;SDS011;52989;48.796;9.806;2022-08-02T02:19:48;3.60;;;2.40;;
66183;SDS011;52989;48.796;9.806;2022-08-02T02:22:15;4.03;;;2.55;;
66183;SDS011;52989;48.796;9.806;2022-08-02T02:24:40;4.28;;;2.20;;
66183;SDS011;52989;48.796;9.806;2022-08-02T02:27:06;3.92;;;2.38;;
66183;SDS011;52989;48.796;9.806;2022-08-02T02:29:35;2.83;;;1.80;;
66183;SDS011;52989;48.796;9.806;2022-08-02T02:32:05;2.47;;;2.03;;
66183;SDS011;52989;48.796;9.806;2022-08-02T02:34:32;3.78;;;2.58;;
66183;SDS011;52989;48.796;9.806;2022-08-02T02:37:02;5.93;;;3.13;;
66183;SDS011;52989;48.796;9.806;2022-08-02T02:39:32;5.30;;;3.30;;
66183;SDS011;52989;48.796;9.806;2022-08-02T02:42:00;3.60;;;2.75;;
66183;SDS011;52989;48.796;9.806;2022-08-02T02:44:27;3.75;;;2.83;;
66183;SDS011;52989;48.796;9.806;2022-08-02T02:46:54;3.78;;;2.83;;
66183;SDS011;52989;48.796;9.806;2022-08-02T02:49:22;6.05;;;3.53;;
66183;SDS011;52989;48.796;9.806;2022-08-02T02:51:49;4.65;;;3.10;;
66183;SDS011;52989;48.796;9.806;2022-08-02T02:54:15;5.93;;;3.65;;
66183;SDS011;52989;48.796;9.806;2022-08-02T02:56:43;8.10;;;4.50;;
66183;SDS011;52989;48.796;9.806;2022-08-02T02:59:09;4.85;;;3.13;;
66183;SDS011;52989;48.796;9.806;2022-08-02T03:01:37;3.15;;;2.63;;
66183;SDS011;52989;48.796;9.806;2022-08-02T03:04:05;6.13;;;3.92;;
66183;SDS011;52989;48.796;9.806;2022-08-02T03:06:35;5.00;;;3.97;;
66183;SDS011;52989;48.796;9.806;2022-08-02T03:09:02;5.28;;;3.05;;
66183;SDS011;52989;48.796;9.806;2022-08-02T03:11:28;7.82;;;4.00;;
66183;SDS011;52989;48.796;9.806;2022-08-02T03:13:58;6.60;;;3.97;;
66183;SDS011;52989;48.796;9.806;2022-08-02T03:16:26;5.72;;;3.40;;
66183;SDS011;52989;48.796;9.806;2022-08-02T03:18:52;3.58;;;2.50;;
66183;SDS011;52989;48.796;9.806;2022-08-02T03:21:19;5.85;;;3.47;;
66183;SDS011;52989;48.796;9.806;2022-08-02T03:23:46;6.80;;;4.63;;
66183;SDS011;52989;48.796;9.806;2022-08-02T03:26:12;7.47;;;4.47;;
66183;SDS011;52989;48.796;9.806;2022-08-02T03:28:38;10.05;;;6.57;;
66183;SDS011;52989;48.796;9.806;2022-08-02T03:31:04;9.75;;;5.82;;
66183;SDS011;52989;48.796;9.806;2022-08-02T03:33:31;8.05;;;5.13;;
66183;SDS011;52989;48.796;9.806;2022-08-02T03:35:58;7.50;;;5.03;;
66183;SDS011;52989;48.796;9.806;2022-08-02T03:38:26;7.85;;;5.03;;
66183;SDS011;52989;48.796;9.806;2022-08-02T03:40:54;6.97;;;4.43;;
66183;SDS011;52989;48.796;9.806;2022-08-02T03:43:21;6.03;;;4.28;;
66183;SDS011;52989;48.796;9.806;2022-08-02T03:45:48;5.65;;;3.92;;
66183;SDS011;52989;48.796;9.806;2022-08-02T03:48:15;6.25;;;3.80;;
66183;SDS011;52989;48.796;9.806;2022-08-02T03:50:41;5.22;;;4.18;;
66183;SDS011;52989;48.796;9.806;2022-08-02T03:53:09;8.25;;;4.60;;
66183;SDS011;52989;48.796;9.806;2022-08-02T03:55:34;7.63;;;4.90;;
66183;SDS011;52989;48.796;9.806;2022-08-02T03:58:00;6.60;;;5.07;;
66183;SDS011;52989;48.796;9.806;2022-08-02T04:00:26;8.80;;;5.43;;
66183;SDS011;52989;48.796;9.806;2022-08-02T04:02:52;7.75;;;5.32;;
66183;SDS011;52989;48.796;9.806;2022-08-02T04:05:18;7.18;;;5.57;;
66183;SDS011;52989;48.796;9.806;2022-08-02T04:07:44;10.00;;;7.00;;
66183;SDS011;52989;48.796;9.806;2022-08-02T04:10:10;9.65;;;7.35;;
66183;SDS011;52989;48.796;9.806;2022-08-02T04:12:36;9.35;;;6.90;;
66183;SDS011;52989;48.796;9.806;2022-08-02T04:15:02;8.70;;;6.03;;
66183;SDS011;52989;48.796;9.806;2022-08-02T04:17:31;10.75;;;6.72;;
66183;SDS011;52989;48.796;9.806;2022-08-02T04:20:00;10.15;;;5.90;;
66183;SDS011;52989;48.796;9.806;2022-08-02T04:22:30;8.80;;;6.18;;
66183;SDS011;52989;48.796;9.806;2022-08-02T04:25:04;9.98;;;6.30;;
66183;SDS011;52989;48.796;9.806;2022-08-02T04:27:32;9.73;;;5.88;;
66183;SDS011;52989;48.796;9.806;2022-08-02T04:30:01;9.27;;;5.22;;
66183;SDS011;52989;48.796;9.806;2022-08-02T04:32:27;8.25;;;5.30;;
66183;SDS011;52989;48.796;9.806;2022-08-02T04:34:53;6.53;;;4.85;;
66183;SDS011;52989;48.796;9.806;2022-08-02T04:37:19;5.50;;;4.00;;
66183;SDS011;52989;48.796;9.806;2022-08-02T04:39:45;5.63;;;4.18;;
66183;SDS011;52989;48.796;9.806;2022-08-02T04:42:18;7.32;;;4.85;;
66183;SDS011;52989;48.796;9.806;2022-08-02T04:44:48;7.00;;;4.03;;
66183;SDS011;52989;48.796;9.806;2022-08-02T04:47:14;5.45;;;4.40;;
66183;SDS011;52989;48.796;9.806;2022-08-02T04:49:41;3.25;;;2.80;;
66183;SDS011;52989;48.796;9.806;2022-08-02T04:52:07;5.95;;;4.43;;
66183;SDS011;52989;48.796;9.806;2022-08-02T04:54:32;4.70;;;3.40;;
66183;SDS011;52989;48.796;9.806;2022-08-02T04:56:58;5.88;;;3.45;;
66183;SDS011;52989;48.796;9.806;2022-08-02T04:59:23;6.25;;;4.22;;
66183;SDS011;52989;48.796;9.806;2022-08-02T05:01:49;5.90;;;3.83;;
66183;SDS011;52989;48.796;9.806;2022-08-02T05:04:15;5.43;;;3.42;;
66183;SDS011;52989;48.796;9.806;2022-08-02T05:06:40;6.07;;;3.50;;
66183;SDS011;52989;48.796;9.806;2022-08-02T05:09:06;6.45;;;4.53;;
66183;SDS011;52989;48.796;9.806;2022-08-02T05:11:31;7.28;;;3.05;;
66183;SDS011;52989;48.796;9.806;2022-08-02T05:13:57;4.75;;;3.40;;
66183;SDS011;52989;48.796;9.806;2022-08-02T05:16:22;5.72;;;3.92;;
66183;SDS011;52989;48.796;9.806;2022-08-02T05:18:50;6.22;;;4.13;;
66183;SDS011;52989;48.796;9.806;2022-08-02T05:21:15;6.18;;;4.03;;
66183;SDS011;52989;48.796;9.806;2022-08-02T05:23:41;8.38;;;4.30;;
66183;SDS011;52989;48.796;9.806;2022-08-02T05:26:07;5.88;;;4.20;;
66183;SDS011;52989;48.796;9.806;2022-08-02T05:28:32;4.88;;;4.00;;
66183;SDS011;52989;48.796;9.806;2022-08-02T05:30:58;6.65;;;4.40;;
66183;SDS011;52989;48.796;9.806;2022-08-02T05:33:24;5.38;;;4.32;;
66183;SDS011;52989;48.796;9.806;2022-08-02T05:35:49;5.88;;;3.67;;
66183;SDS011;52989;48.796;9.806;2022-08-02T05:38:15;7.10;;;3.97;;
66183;SDS011;52989;48.796;9.806;2022-08-02T05:40:41;4.50;;;3.30;;
66183;SDS011;52989;48.796;9.806;2022-08-02T05:43:10;4.63;;;3.33;;
66183;SDS011;52989;48.796;9.806;2022-08-02T05:45:37;6.60;;;3.70;;
66183;SDS011;52989;48.796;9.806;2022-08-02T05:48:02;6.82;;;3.50;;
66183;SDS011;52989;48.796;9.806;2022-08-02T05:50:28;4.80;;;3.42;;
66183;SDS011;52989;48.796;9.806;2022-08-02T05:52:58;3.78;;;2.55;;
66183;SDS011;52989;48.796;9.806;2022-08-02T05:55:46;3.90;;;3.00;;
66183;SDS011;52989;48.796;9.806;2022-08-02T06:00:54;5.57;;;3.17;;
66183;SDS011;52989;48.796;9.806;2022-08-02T06:03:22;5.18;;;3.50;;
66183;SDS011;52989;48.796;9.806;2022-08-02T06:08:23;4.95;;;3.42;;
66183;SDS011;52989;48.796;9.806;2022-08-02T06:10:55;4.00;;;2.80;;
66183;SDS011;52989;48.796;9.806;2022-08-02T06:13:24;4.20;;;2.95;;
66183;SDS011;52989;48.796;9.806;2022-08-02T06:15:51;4.63;;;3.05;;
66183;SDS011;52989;48.796;9.806;2022-08-02T06:18:17;7.53;;;3.17;;
66183;SDS011;52989;48.796;9.806;2022-08-02T06:20:43;5.13;;;3.05;;
66183;SDS011;52989;48.796;9.806;2022-08-02T06:23:14;4.78;;;3.17;;
66183;SDS011;52989;48.796;9.806;2022-08-02T06:25:41;8.95;;;2.92;;
66183;SDS011;52989;48.796;9.806;2022-08-02T06:28:11;4.75;;;3.20;;
66183;SDS011;52989;48.796;9.806;2022-08-02T06:30:40;4.57;;;3.10;;
66183;SDS011;52989;48.796;9.806;2022-08-02T06:33:07;4.82;;;3.10;;
66183;SDS011;52989;48.796;9.806;2022-08-02T06:35:34;4.40;;;2.80;;
66183;SDS011;52989;48.796;9.806;2022-08-02T06:38:11;6.50;;;2.50;;
66183;SDS011;52989;48.796;9.806;2022-08-02T06:40:47;5.30;;;2.95;;
66183;SDS011;52989;48.796;9.806;2022-08-02T06:43:33;5.43;;;2.67;;
66183;SDS011;52989;48.796;9.806;2022-08-02T06:46:29;5.15;;;3.05;;
66183;SDS011;52989;48.796;9.806;2022-08-02T06:48:55;5.53;;;2.92;;
66183;SDS011;52989;48.796;9.806;2022-08-02T06:51:21;4.22;;;3.20;;
66183;SDS011;52989;48.796;9.806;2022-08-02T06:53:47;4.63;;;2.88;;
66183;SDS011;52989;48.796;9.806;2022-08-02T06:56:13;4.97;;;3.35;;
66183;SDS011;52989;48.796;9.806;2022-08-02T06:58:39;5.35;;;2.88;;
66183;SDS011;52989;48.796;9.806;2022-08-02T07:01:05;4.30;;;2.55;;
66183;SDS011;52989;48.796;9.806;2022-08-02T07:03:32;4.25;;;2.45;;
66183;SDS011;52989;48.796;9.806;2022-08-02T07:05:58;3.65;;;2.58;;
66183;SDS011;52989;48.796;9.806;2022-08-02T07:08:24;5.35;;;3.05;;
66183;SDS011;52989;48.796;9.806;2022-08-02T07:10:51;7.10;;;2.85;;
66183;SDS011;52989;48.796;9.806;2022-08-02T07:13:17;6.00;;;3.10;;
66183;SDS011;52989;48.796;9.806;2022-08-02T07:15:42;5.07;;;3.20;;
66183;SDS011;52989;48.796;9.806;2022-08-02T07:18:08;4.55;;;3.00;;
66183;SDS011;52989;48.796;9.806;2022-08-02T07:20:39;5.13;;;2.72;;
66183;SDS011;52989;48.796;9.806;2022-08-02T07:23:06;4.35;;;3.45;;
66183;SDS011;52989;48.796;9.806;2022-08-02T07:25:31;5.22;;;3.38;;
66183;SDS011;52989;48.796;9.806;2022-08-02T07:27:57;5.78;;;3.38;;
66183;SDS011;52989;48.796;9.806;2022-08-02T07:30:23;4.05;;;3.15;;
66183;SDS011;52989;48.796;9.806;2022-08-02T07:32:48;5.57;;;3.55;;
66183;SDS011;52989;48.796;9.806;2022-08-02T07:35:14;5.15;;;3.17;;
66183;SDS011;52989;48.796;9.806;2022-08-02T07:37:39;6.70;;;3.78;;
66183;SDS011;52989;48.796;9.806;2022-08-02T07:40:08;6.50;;;3.78;;
66183;SDS011;52989;48.796;9.806;2022-08-02T07:42:34;9.02;;;4.07;;
66183;SDS011;52989;48.796;9.806;2022-08-02T07:45:00;7.93;;;3.95;;
66183;SDS011;52989;48.796;9.806;2022-08-02T07:47:26;8.23;;;4.22;;
66183;SDS011;52989;48.796;9.806;2022-08-02T07:49:52;5.90;;;3.90;;
66183;SDS011;52989;48.796;9.806;2022-08-02T07:52:17;5.55;;;3.90;;
66183;SDS011;52989;48.796;9.806;2022-08-02T07:54:43;7.57;;;4.10;;
66183;SDS011;52989;48.796;9.806;2022-08-02T07:57:08;6.22;;;4.40;;
66183;SDS011;52989;48.796;9.806;2022-08-02T07:59:34;8.52;;;4.82;;
66183;SDS011;52989;48.796;9.806;2022-08-02T08:01:59;6.65;;;3.83;;
66183;SDS011;52989;48.796;9.806;2022-08-02T08:04:25;3.83;;;3.35;;
66183;SDS011;52989;48.796;9.806;2022-08-02T08:06:51;7.05;;;4.40;;
66183;SDS011;52989;48.796;9.806;2022-08-02T08:09:18;6.60;;;3.90;;
66183;SDS011;52989;48.796;9.806;2022-08-02T08:11:44;5.13;;;4.05;;
66183;SDS011;52989;48.796;9.806;2022-08-02T08:14:09;6.00;;;4.10;;
66183;SDS011;52989;48.796;9.806;2022-08-02T08:16:35;7.47;;;4.35;;
66183;SDS011;52989;48.796;9.806;2022-08-02T08:19:01;7.78;;;4.00;;
66183;SDS011;52989;48.796;9.806;2022-08-02T08:21:27;7.28;;;3.78;;
66183;SDS011;52989;48.796;9.806;2022-08-02T08:23:53;4.68;;;3.65;;
66183;SDS011;52989;48.796;9.806;2022-08-02T08:26:19;5.45;;;4.22;;
66183;SDS011;52989;48.796;9.806;2022-08-02T08:28:45;4.57;;;3.83;;
66183;SDS011;52989;48.796;9.806;2022-08-02T08:31:11;6.55;;;4.00;;
66183;SDS011;52989;48.796;9.806;2022-08-02T08:33:37;5.25;;;4.00;;
66183;SDS011;52989;48.796;9.806;2022-08-02T08:36:02;8.02;;;5.10;;
66183;SDS011;52989;48.796;9.806;2022-08-02T08:38:28;4.30;;;3.47;;
66183;SDS011;52989;48.796;9.806;2022-08-02T08:40:54;7.05;;;3.90;;
66183;SDS011;52989;48.796;9.806;2022-08-02T08:43:20;7.63;;;4.28;;
66183;SDS011;52989;48.796;9.806;2022-08-02T08:45:46;4.60;;;3.83;;
66183;SDS011;52989;48.796;9.806;2022-08-02T08:48:14;4.65;;;4.15;;
66183;SDS011;52989;48.796;9.806;2022-08-02T08:50:52;9.73;;;4.10;;
66183;SDS011;52989;48.796;9.806;2022-08-02T08:53:21;5.80;;;4.13;;
66183;SDS011;52989;48.796;9.806;2022-08-02T08:55:51;6.25;;;4.40;;
66183;SDS011;52989;48.796;9.806;2022-08-02T08:58:18;5.75;;;4.00;;
66183;SDS011;52989;48.796;9.806;2022-08-02T09:00:44;4.78;;;3.03;;
66183;SDS011;52989;48.796;9.806;2022-08-02T09:03:11;4.35;;;3.50;;
66183;SDS011;52989;48.796;9.806;2022-08-02T09:05:37;9.18;;;3.92;;
66183;SDS011;52989;48.796;9.806;2022-08-02T09:08:03;4.47;;;3.65;;
66183;SDS011;52989;48.796;9.806;2022-08-02T09:10:37;11.65;;;3.88;;
66183;SDS011;52989;48.796;9.806;2022-08-02T09:15:42;6.63;;;3.40;;
66183;SDS011;52989;48.796;9.806;2022-08-02T09:18:10;5.50;;;3.90;;
66183;SDS011;52989;48.796;9.806;2022-08-02T09:20:52;5.13;;;3.78;;
66183;SDS011;52989;48.796;9.806;2022-08-02T09:23:21;5.35;;;3.35;;
66183;SDS011;52989;48.796;9.806;2022-08-02T09:25:54;4.97;;;2.97;;
66183;SDS011;52989;48.796;9.806;2022-08-02T09:30:49;5.90;;;3.38;;
66183;SDS011;52989;48.796;9.806;2022-08-02T09:33:23;4.47;;;3.58;;
66183;SDS011;52989;48.796;9.806;2022-08-02T09:35:56;5.88;;;3.30;;
66183;SDS011;52989;48.796;9.806;2022-08-02T09:38:29;4.45;;;3.00;;
66183;SDS011;52989;48.796;9.806;2022-08-02T09:40:56;3.47;;;3.00;;
66183;SDS011;52989;48.796;9.806;2022-08-02T09:43:43;4.50;;;2.78;;
66183;SDS011;52989;48.796;9.806;2022-08-02T09:46:18;3.97;;;2.83;;
66183;SDS011;52989;48.796;9.806;2022-08-02T09:51:12;3.78;;;3.17;;
66183;SDS011;52989;48.796;9.806;2022-08-02T09:53:40;6.18;;;2.88;;
66183;SDS011;52989;48.796;9.806;2022-08-02T09:56:06;4.00;;;2.35;;
66183;SDS011;52989;48.796;9.806;2022-08-02T09:58:32;3.90;;;2.67;;
66183;SDS011;52989;48.796;9.806;2022-08-02T10:01:02;5.13;;;2.95;;
66183;SDS011;52989;48.796;9.806;2022-08-02T10:03:28;4.55;;;2.90;;
66183;SDS011;52989;48.796;9.806;2022-08-02T10:05:54;3.70;;;3.05;;
66183;SDS011;52989;48.796;9.806;2022-08-02T10:08:22;4.63;;;3.15;;
66183;SDS011;52989;48.796;9.806;2022-08-02T10:10:49;4.22;;;2.92;;
66183;SDS011;52989;48.796;9.806;2022-08-02T10:13:26;3.00;;;2.58;;
66183;SDS011;52989;48.796;9.806;2022-08-02T10:15:54;3.55;;;3.00;;
66183;SDS011;52989;48.796;9.806;2022-08-02T10:18:20;4.40;;;3.10;;
66183;SDS011;52989;48.796;9.806;2022-08-02T10:20:46;4.72;;;2.75;;
66183;SDS011;52989;48.796;9.806;2022-08-02T10:23:14;3.47;;;3.10;;
66183;SDS011;52989;48.796;9.806;2022-08-02T10:25:43;3.25;;;2.55;;
66183;SDS011;52989;48.796;9.806;2022-08-02T10:28:11;3.90;;;2.60;;
66183;SDS011;52989;48.796;9.806;2022-08-02T10:30:41;3.47;;;2.70;;
66183;SDS011;52989;48.796;9.806;2022-08-02T10:33:09;3.65;;;3.05;;
66183;SDS011;52989;48.796;9.806;2022-08-02T10:35:37;4.95;;;2.45;;
66183;SDS011;52989;48.796;9.806;2022-08-02T10:38:05;2.97;;;2.50;;
66183;SDS011;52989;48.796;9.806;2022-08-02T10:40:44;3.42;;;2.90;;
66183;SDS011;52989;48.796;9.806;2022-08-02T10:43:10;3.17;;;2.70;;
66183;SDS011;52989;48.796;9.806;2022-08-02T10:45:37;4.93;;;2.67;;
66183;SDS011;52989;48.796;9.806;2022-08-02T10:48:06;4.47;;;2.38;;
66183;SDS011;52989;48.796;9.806;2022-08-02T10:53:33;4.28;;;2.65;;
66183;SDS011;52989;48.796;9.806;2022-08-02T10:56:02;2.88;;;2.20;;
66183;SDS011;52989;48.796;9.806;2022-08-02T10:58:30;2.75;;;2.22;;
66183;SDS011;52989;48.796;9.806;2022-08-02T11:00:57;2.85;;;1.92;;
66183;SDS011;52989;48.796;9.806;2022-08-02T11:06:04;2.53;;;1.90;;
66183;SDS011;52989;48.796;9.806;2022-08-02T11:08:34;2.20;;;2.00;;
66183;SDS011;52989;48.796;9.806;2022-08-02T11:11:21;1.83;;;1.63;;
66183;SDS011;52989;48.796;9.806;2022-08-02T11:14:02;2.38;;;1.77;;
66183;SDS011;52989;48.796;9.806;2022-08-02T11:19:19;2.80;;;1.70;;
66183;SDS011;52989;48.796;9.806;2022-08-02T11:22:04;2.00;;;1.58;;
66183;SDS011;52989;48.796;9.806;2022-08-02T11:24:36;1.92;;;1.50;;
66183;SDS011;52989;48.796;9.806;2022-08-02T11:27:06;3.35;;;1.58;;
66183;SDS011;52989;48.796;9.806;2022-08-02T11:29:43;2.22;;;1.48;;
66183;SDS011;52989;48.796;9.806;2022-08-02T11:32:16;2.88;;;1.65;;
66183;SDS011;52989;48.796;9.806;2022-08-02T11:34:44;1.55;;;1.45;;
66183;SDS011;52989;48.796;9.806;2022-08-02T11:37:11;2.25;;;1.20;;
66183;SDS011;52989;48.796;9.806;2022-08-02T11:39:37;4.80;;;1.30;;
66183;SDS011;52989;48.796;9.806;2022-08-02T11:42:03;1.50;;;1.30;;
66183;SDS011;52989;48.796;9.806;2022-08-02T11:44:29;4.65;;;1.20;;
66183;SDS011;52989;48.796;9.806;2022-08-02T11:47:05;2.03;;;1.48;;
66183;SDS011;52989;48.796;9.806;2022-08-02T11:49:33;2.83;;;1.48;;
66183;SDS011;52989;48.796;9.806;2022-08-02T11:52:02;2.67;;;1.52;;
66183;SDS011;52989;48.796;9.806;2022-08-02T11:54:30;2.88;;;1.40;;
66183;SDS011;52989;48.796;9.806;2022-08-02T11:57:11;3.25;;;1.48;;
66183;SDS011;52989;48.796;9.806;2022-08-02T11:59:41;1.40;;;1.30;;
66183;SDS011;52989;48.796;9.806;2022-08-02T12:02:09;2.92;;;1.50;;
66183;SDS011;52989;48.796;9.806;2022-08-02T12:04:35;1.85;;;1.30;;
66183;SDS011;52989;48.796;9.806;2022-08-02T12:07:01;1.70;;;1.40;;
66183;SDS011;52989;48.796;9.806;2022-08-02T12:09:29;2.67;;;1.60;;
66183;SDS011;52989;48.796;9.806;2022-08-02T12:11:56;2.47;;;1.48;;
66183;SDS011;52989;48.796;9.806;2022-08-02T12:14:23;3.35;;;1.50;;
66183;SDS011;52989;48.796;9.806;2022-08-02T12:16:51;1.98;;;1.50;;
66183;SDS011;52989;48.796;9.806;2022-08-02T12:19:36;2.88;;;1.45;;
66183;SDS011;52989;48.796;9.806;2022-08-02T12:22:15;2.92;;;1.40;;
66183;SDS011;52989;48.796;9.806;2022-08-02T12:24:50;1.95;;;1.30;;
66183;SDS011;52989;48.796;9.806;2022-08-02T12:30:13;1.45;;;1.27;;
66183;SDS011;52989;48.796;9.806;2022-08-02T12:32:41;2.28;;;1.23;;
66183;SDS011;52989;48.796;9.806;2022-08-02T12:35:11;1.88;;;1.40;;
66183;SDS011;52989;48.796;9.806;2022-08-02T12:37:42;1.60;;;1.30;;
66183;SDS011;52989;48.796;9.806;2022-08-02T12:40:43;1.35;;;1.10;;
66183;SDS011;52989;48.796;9.806;2022-08-02T12:43:02;2.42;;;1.30;;
66183;SDS011;52989;48.796;9.806;2022-08-02T12:45:31;2.67;;;1.20;;
66183;SDS011;52989;48.796;9.806;2022-08-02T12:48:10;4.88;;;1.20;;
66183;SDS011;52989;48.796;9.806;2022-08-02T12:50:36;1.00;;;0.90;;
66183;SDS011;52989;48.796;9.806;2022-08-02T12:55:27;1.15;;;0.80;;
66183;SDS011;52989;48.796;9.806;2022-08-02T12:57:57;0.98;;;0.80;;
66183;SDS011;52989;48.796;9.806;2022-08-02T13:00:29;1.98;;;0.70;;
66183;SDS011;52989;48.796;9.806;2022-08-02T13:02:57;1.13;;;0.73;;
66183;SDS011;52989;48.796;9.806;2022-08-02T13:05:23;1.05;;;0.77;;
66183;SDS011;52989;48.796;9.806;2022-08-02T13:07:49;1.08;;;0.77;;
66183;SDS011;52989;48.796;9.806;2022-08-02T13:10:16;2.20;;;0.98;;
66183;SDS011;52989;48.796;9.806;2022-08-02T13:12:41;1.20;;;0.70;;
66183;SDS011;52989;48.796;9.806;2022-08-02T13:15:07;1.45;;;0.80;;
66183;SDS011;52989;48.796;9.806;2022-08-02T13:17:33;4.57;;;0.82;;
66183;SDS011;52989;48.796;9.806;2022-08-02T13:20:00;0.80;;;0.77;;
66183;SDS011;52989;48.796;9.806;2022-08-02T13:22:26;1.23;;;0.70;;
66183;SDS011;52989;48.796;9.806;2022-08-02T13:24:52;4.03;;;0.80;;
66183;SDS011;52989;48.796;9.806;2022-08-02T13:27:18;1.23;;;0.60;;
66183;SDS011;52989;48.796;9.806;2022-08-02T13:29:44;0.70;;;0.65;;
66183;SDS011;52989;48.796;9.806;2022-08-02T13:32:09;1.13;;;0.70;;
66183;SDS011;52989;48.796;9.806;2022-08-02T13:34:35;3.42;;;0.70;;
66183;SDS011;52989;48.796;9.806;2022-08-02T13:37:01;1.17;;;0.70;;
66183;SDS011;52989;48.796;9.806;2022-08-02T13:39:27;1.13;;;0.68;;
66183;SDS011;52989;48.796;9.806;2022-08-02T13:41:53;0.73;;;0.68;;
66183;SDS011;52989;48.796;9.806;2022-08-02T13:44:19;1.20;;;0.70;;
66183;SDS011;52989;48.796;9.806;2022-08-02T13:46:45;0.70;;;0.70;;
66183;SDS011;52989;48.796;9.806;2022-08-02T13:49:11;1.05;;;0.60;;
66183;SDS011;52989;48.796;9.806;2022-08-02T13:51:38;0.70;;;0.50;;
66183;SDS011;52989;48.796;9.806;2022-08-02T13:54:03;0.85;;;0.50;;
66183;SDS011;52989;48.796;9.806;2022-08-02T13:56:29;0.60;;;0.60;;
66183;SDS011;52989;48.796;9.806;2022-08-02T13:58:55;1.17;;;0.80;;
66183;SDS011;52989;48.796;9.806;2022-08-02T14:01:23;0.75;;;0.68;;
66183;SDS011;52989;48.796;9.806;2022-08-02T14:03:51;1.33;;;0.90;;
66183;SDS011;52989;48.796;9.806;2022-08-02T14:06:19;1.17;;;0.73;;
66183;SDS011;52989;48.796;9.806;2022-08-02T14:08:47;2.60;;;0.70;;
66183;SDS011;52989;48.796;9.806;2022-08-02T14:11:13;0.93;;;0.77;;
66183;SDS011;52989;48.796;9.806;2022-08-02T14:13:39;2.97;;;0.73;;
66183;SDS011;52989;48.796;9.806;2022-08-02T14:16:05;0.60;;;0.60;;
66183;SDS011;52989;48.796;9.806;2022-08-02T14:18:30;0.70;;;0.57;;
66183;SDS011;52989;48.796;9.806;2022-08-02T14:20:56;1.15;;;0.75;;
66183;SDS011;52989;48.796;9.806;2022-08-02T14:23:22;3.35;;;0.80;;
66183;SDS011;52989;48.796;9.806;2022-08-02T14:25:47;1.73;;;0.80;;
66183;SDS011;52989;48.796;9.806;2022-08-02T14:28:14;0.80;;;0.70;;
66183;SDS011;52989;48.796;9.806;2022-08-02T14:30:39;0.88;;;0.70;;
66183;SDS011;52989;48.796;9.806;2022-08-02T14:33:05;0.80;;;0.80;;
66183;SDS011;52989;48.796;9.806;2022-08-02T14:35:31;3.30;;;0.90;;
66183;SDS011;52989;48.796;9.806;2022-08-02T14:37:56;1.98;;;0.95;;
66183;SDS011;52989;48.796;9.806;2022-08-02T14:40:22;0.98;;;0.88;;
66183;SDS011;52989;48.796;9.806;2022-08-02T14:42:48;1.67;;;0.70;;
66183;SDS011;52989;48.796;9.806;2022-08-02T14:45:16;0.85;;;0.80;;
66183;SDS011;52989;48.796;9.806;2022-08-02T14:47:42;0.77;;;0.68;;
66183;SDS011;52989;48.796;9.806;2022-08-02T14:50:08;1.33;;;0.63;;
66183;SDS011;52989;48.796;9.806;2022-08-02T14:52:34;1.00;;;0.70;;
66183;SDS011;52989;48.796;9.806;2022-08-02T14:55:00;14.68;;;1.85;;
66183;SDS011;52989;48.796;9.806;2022-08-02T14:57:28;1.85;;;0.70;;
66183;SDS011;52989;48.796;9.806;2022-08-02T14:59:54;2.03;;;0.60;;
66183;SDS011;52989;48.796;9.806;2022-08-02T15:02:19;0.70;;;0.50;;
66183;SDS011;52989;48.796;9.806;2022-08-02T15:04:45;1.90;;;0.70;;
66183;SDS011;52989;48.796;9.806;2022-08-02T15:07:11;1.73;;;0.70;;
66183;SDS011;52989;48.796;9.806;2022-08-02T15:09:37;2.25;;;0.70;;
66183;SDS011;52989;48.796;9.806;2022-08-02T15:12:03;1.05;;;0.70;;
66183;SDS011;52989;48.796;9.806;2022-08-02T15:14:29;1.40;;;0.70;;
66183;SDS011;52989;48.796;9.806;2022-08-02T15:16:54;1.75;;;0.50;;
66183;SDS011;52989;48.796;9.806;2022-08-02T15:19:20;0.80;;;0.55;;
66183;SDS011;52989;48.796;9.806;2022-08-02T15:21:46;1.25;;;0.60;;
66183;SDS011;52989;48.796;9.806;2022-08-02T15:24:11;0.63;;;0.60;;
66183;SDS011;52989;48.796;9.806;2022-08-02T15:26:37;1.77;;;0.50;;
66183;SDS011;52989;48.796;9.806;2022-08-02T15:29:03;0.50;;;0.38;;
66183;SDS011;52989;48.796;9.806;2022-08-02T15:31:29;0.35;;;0.32;;